sensor_id;sensor_type;location;lat;lon;timestamp;P1;durP1;ratioP1;P2;durP2;ratioP2
30309;SDS011;17115;50.836;12.078;2023-04-24T01:55:34;1.05;;;0.40;;
30309;SDS011;17115;50.836;12.078;2023-04-24T01:58:18;0.38;;;0.35;;
30309;SDS011;17115;50.836;12.078;2023-04-24T02:01:33;0.30;;;0.20;;
30309;SDS011;17115;50.836;12.078;2023-04-24T02:04:17;0.00;;;0.00;;
30309;SDS011;17115;50.836;12.078;2023-04-24T02:07:06;0.13;;;0.13;;
30309;SDS011;17115;50.836;12.078;2023-04-24T02:09:51;0.30;;;0.10;;
30309;SDS011;17115;50.836;12.078;2023-04-24T02:12:35;0.00;;;0.00;;
30309;SDS011;17115;50.836;12.078;2023-04-24T02:15:20;0.00;;;0.00;;
30309;SDS011;17115;50.836;12.078;2023-04-24T02:18:09;0.00;;;0.00;;
30309;SDS011;17115;50.836;12.078;2023-04-24T02:20:55;0.00;;;0.00;;
30309;SDS011;17115;50.836;12.078;2023-04-24T02:23:39;3.00;;;0.30;;
30309;SDS011;17115;50.836;12.078;2023-04-24T02:26:24;0.00;;;0.00;;
30309;SDS011;17115;50.836;12.078;2023-04-24T02:29:11;0.17;;;0.17;;
30309;SDS011;17115;50.836;12.078;2023-04-24T02:31:59;0.15;;;0.15;;
30309;SDS011;17115;50.836;12.078;2023-04-24T02:34:43;0.20;;;0.20;;
30309;SDS011;17115;50.836;12.078;2023-04-24T02:37:28;0.08;;;0.08;;
30309;SDS011;17115;50.836;12.078;2023-04-24T02:40:12;1.52;;;0.47;;
30309;SDS011;17115;50.836;12.078;2023-04-24T02:42:57;0.38;;;0.38;;
30309;SDS011;17115;50.836;12.078;2023-04-24T02:45:42;0.45;;;0.17;;
30309;SDS011;17115;50.836;12.078;2023-04-24T02:48:26;0.10;;;0.10;;
30309;SDS011;17115;50.836;12.078;2023-04-24T02:51:12;0.55;;;0.55;;
30309;SDS011;17115;50.836;12.078;2023-04-24T02:53:58;1.02;;;0.10;;
30309;SDS011;17115;50.836;12.078;2023-04-24T03:58:00;0.43;;;0.30;;
30309;SDS011;17115;50.836;12.078;2023-04-24T04:00:45;0.65;;;0.40;;
30309;SDS011;17115;50.836;12.078;2023-04-24T04:03:32;0.30;;;0.30;;
30309;SDS011;17115;50.836;12.078;2023-04-24T04:06:16;0.73;;;0.73;;
30309;SDS011;17115;50.836;12.078;2023-04-24T04:09:02;0.68;;;0.68;;
30309;SDS011;17115;50.836;12.078;2023-04-24T04:11:47;0.47;;;0.47;;
30309;SDS011;17115;50.836;12.078;2023-04-24T04:14:31;0.85;;;0.70;;
30309;SDS011;17115;50.836;12.078;2023-04-24T04:17:16;0.65;;;0.55;;
30309;SDS011;17115;50.836;12.078;2023-04-24T04:20:00;2.90;;;2.13;;
30309;SDS011;17115;50.836;12.078;2023-04-24T04:22:46;2.33;;;1.48;;
30309;SDS011;17115;50.836;12.078;2023-04-24T04:25:31;2.72;;;1.73;;
30309;SDS011;17115;50.836;12.078;2023-04-24T04:28:16;3.10;;;2.33;;
30309;SDS011;17115;50.836;12.078;2023-04-24T04:31:04;2.50;;;1.70;;
30309;SDS011;17115;50.836;12.078;2023-04-24T04:33:49;7.07;;;4.35;;
30309;SDS011;17115;50.836;12.078;2023-04-24T04:36:33;1.67;;;1.50;;
30309;SDS011;17115;50.836;12.078;2023-04-24T04:39:20;2.28;;;1.17;;
30309;SDS011;17115;50.836;12.078;2023-04-24T04:42:05;1.38;;;0.90;;
30309;SDS011;17115;50.836;12.078;2023-04-24T04:44:51;1.15;;;0.85;;
30309;SDS011;17115;50.836;12.078;2023-04-24T04:47:38;0.50;;;0.50;;
30309;SDS011;17115;50.836;12.078;2023-04-24T04:50:23;0.68;;;0.65;;
30309;SDS011;17115;50.836;12.078;2023-04-24T04:53:08;0.70;;;0.40;;
30309;SDS011;17115;50.836;12.078;2023-04-24T04:55:52;0.65;;;0.30;;
30309;SDS011;17115;50.836;12.078;2023-04-24T04:58:37;0.40;;;0.40;;
30309;SDS011;17115;50.836;12.078;2023-04-24T05:01:23;0.35;;;0.35;;
30309;SDS011;17115;50.836;12.078;2023-04-24T05:04:08;0.30;;;0.30;;
30309;SDS011;17115;50.836;12.078;2023-04-24T05:06:54;1.00;;;0.35;;
30309;SDS011;17115;50.836;12.078;2023-04-24T05:09:38;0.32;;;0.32;;
30309;SDS011;17115;50.836;12.078;2023-04-24T05:12:23;0.55;;;0.55;;
30309;SDS011;17115;50.836;12.078;2023-04-24T05:15:07;0.25;;;0.25;;
30309;SDS011;17115;50.836;12.078;2023-04-24T05:17:52;0.73;;;0.73;;
30309;SDS011;17115;50.836;12.078;2023-04-24T05:20:37;1.30;;;0.80;;
30309;SDS011;17115;50.836;12.078;2023-04-24T05:23:21;0.15;;;0.15;;
30309;SDS011;17115;50.836;12.078;2023-04-24T05:26:07;0.00;;;0.00;;
30309;SDS011;17115;50.836;12.078;2023-04-24T05:28:52;1.25;;;0.40;;
30309;SDS011;17115;50.836;12.078;2023-04-24T05:31:36;1.17;;;0.90;;
30309;SDS011;17115;50.836;12.078;2023-04-24T05:34:21;0.30;;;0.30;;
30309;SDS011;17115;50.836;12.078;2023-04-24T05:37:06;0.63;;;0.63;;
30309;SDS011;17115;50.836;12.078;2023-04-24T05:39:53;0.40;;;0.40;;
30309;SDS011;17115;50.836;12.078;2023-04-24T05:42:38;0.30;;;0.30;;
30309;SDS011;17115;50.836;12.078;2023-04-24T05:45:24;0.13;;;0.13;;
30309;SDS011;17115;50.836;12.078;2023-04-24T05:48:09;0.10;;;0.10;;
30309;SDS011;17115;50.836;12.078;2023-04-24T05:50:54;0.10;;;0.10;;
30309;SDS011;17115;50.836;12.078;2023-04-24T05:53:40;0.05;;;0.05;;
30309;SDS011;17115;50.836;12.078;2023-04-24T05:56:24;0.28;;;0.28;;
30309;SDS011;17115;50.836;12.078;2023-04-24T05:59:10;0.00;;;0.00;;
30309;SDS011;17115;50.836;12.078;2023-04-24T06:01:54;0.13;;;0.10;;
30309;SDS011;17115;50.836;12.078;2023-04-24T06:04:39;0.00;;;0.00;;
30309;SDS011;17115;50.836;12.078;2023-04-24T06:07:25;0.20;;;0.20;;
30309;SDS011;17115;50.836;12.078;2023-04-24T06:10:10;0.43;;;0.30;;
30309;SDS011;17115;50.836;12.078;2023-04-24T06:12:55;0.25;;;0.20;;
30309;SDS011;17115;50.836;12.078;2023-04-24T06:15:45;0.20;;;0.10;;
30309;SDS011;17115;50.836;12.078;2023-04-24T06:18:29;13.30;;;0.85;;
30309;SDS011;17115;50.836;12.078;2023-04-24T06:21:15;0.32;;;0.32;;
30309;SDS011;17115;50.836;12.078;2023-04-24T06:23:59;1.27;;;0.50;;
30309;SDS011;17115;50.836;12.078;2023-04-24T06:26:44;0.20;;;0.20;;
30309;SDS011;17115;50.836;12.078;2023-04-24T06:29:29;3.50;;;0.30;;
30309;SDS011;17115;50.836;12.078;2023-04-24T06:32:13;0.10;;;0.10;;
30309;SDS011;17115;50.836;12.078;2023-04-24T06:34:58;0.17;;;0.17;;
30309;SDS011;17115;50.836;12.078;2023-04-24T06:37:43;1.40;;;0.43;;
30309;SDS011;17115;50.836;12.078;2023-04-24T06:40:27;0.10;;;0.10;;
30309;SDS011;17115;50.836;12.078;2023-04-24T06:43:12;0.57;;;0.47;;
30309;SDS011;17115;50.836;12.078;2023-04-24T06:45:57;0.20;;;0.20;;
30309;SDS011;17115;50.836;12.078;2023-04-24T06:48:43;0.32;;;0.32;;
30309;SDS011;17115;50.836;12.078;2023-04-24T06:51:28;0.60;;;0.30;;
30309;SDS011;17115;50.836;12.078;2023-04-24T06:54:12;1.55;;;0.45;;
30309;SDS011;17115;50.836;12.078;2023-04-24T06:56:57;0.40;;;0.40;;
30309;SDS011;17115;50.836;12.078;2023-04-24T06:59:43;0.10;;;0.10;;
30309;SDS011;17115;50.836;12.078;2023-04-24T07:02:28;6.85;;;0.52;;
30309;SDS011;17115;50.836;12.078;2023-04-24T07:05:17;0.73;;;0.68;;
30309;SDS011;17115;50.836;12.078;2023-04-24T07:08:04;0.88;;;0.35;;
30309;SDS011;17115;50.836;12.078;2023-04-24T07:10:50;0.50;;;0.50;;
30309;SDS011;17115;50.836;12.078;2023-04-24T07:13:34;0.70;;;0.50;;
30309;SDS011;17115;50.836;12.078;2023-04-24T07:16:21;0.25;;;0.25;;
30309;SDS011;17115;50.836;12.078;2023-04-24T07:19:05;0.00;;;0.00;;
30309;SDS011;17115;50.836;12.078;2023-04-24T07:21:55;0.00;;;0.00;;
30309;SDS011;17115;50.836;12.078;2023-04-24T07:24:43;0.20;;;0.10;;
30309;SDS011;17115;50.836;12.078;2023-04-24T07:27:27;0.30;;;0.30;;
30309;SDS011;17115;50.836;12.078;2023-04-24T07:30:12;3.30;;;0.25;;
30309;SDS011;17115;50.836;12.078;2023-04-24T07:32:57;0.10;;;0.10;;
30309;SDS011;17115;50.836;12.078;2023-04-24T07:35:42;0.10;;;0.10;;
30309;SDS011;17115;50.836;12.078;2023-04-24T07:38:29;0.00;;;0.00;;
30309;SDS011;17115;50.836;12.078;2023-04-24T07:41:14;0.00;;;0.00;;
30309;SDS011;17115;50.836;12.078;2023-04-24T07:43:59;0.10;;;0.10;;
30309;SDS011;17115;50.836;12.078;2023-04-24T07:46:44;0.47;;;0.22;;
30309;SDS011;17115;50.836;12.078;2023-04-24T07:49:29;0.55;;;0.40;;
30309;SDS011;17115;50.836;12.078;2023-04-24T07:52:13;0.40;;;0.40;;
30309;SDS011;17115;50.836;12.078;2023-04-24T07:54:58;0.13;;;0.13;;
30309;SDS011;17115;50.836;12.078;2023-04-24T09:48:43;0.52;;;0.35;;
30309;SDS011;17115;50.836;12.078;2023-04-24T09:51:34;0.20;;;0.10;;
30309;SDS011;17115;50.836;12.078;2023-04-24T09:54:22;0.40;;;0.20;;
30309;SDS011;17115;50.836;12.078;2023-04-24T09:57:07;0.20;;;0.20;;
30309;SDS011;17115;50.836;12.078;2023-04-24T10:58:35;0.17;;;0.17;;
30309;SDS011;17115;50.836;12.078;2023-04-24T11:01:26;0.20;;;0.20;;
30309;SDS011;17115;50.836;12.078;2023-04-24T11:04:11;0.20;;;0.20;;
30309;SDS011;17115;50.836;12.078;2023-04-24T11:06:56;0.20;;;0.20;;
30309;SDS011;17115;50.836;12.078;2023-04-24T11:09:43;0.40;;;0.25;;
30309;SDS011;17115;50.836;12.078;2023-04-24T11:12:28;0.10;;;0.10;;
30309;SDS011;17115;50.836;12.078;2023-04-24T11:15:22;1.85;;;0.47;;
30309;SDS011;17115;50.836;12.078;2023-04-24T11:18:06;0.32;;;0.30;;
30309;SDS011;17115;50.836;12.078;2023-04-24T11:20:51;0.20;;;0.20;;
30309;SDS011;17115;50.836;12.078;2023-04-24T11:23:39;0.10;;;0.10;;
30309;SDS011;17115;50.836;12.078;2023-04-24T11:26:23;0.20;;;0.17;;
30309;SDS011;17115;50.836;12.078;2023-04-24T11:29:16;0.70;;;0.65;;
30309;SDS011;17115;50.836;12.078;2023-04-24T11:37:52;0.08;;;0.00;;
30309;SDS011;17115;50.836;12.078;2023-04-24T11:40:38;0.08;;;0.03;;
30309;SDS011;17115;50.836;12.078;2023-04-24T11:43:22;0.20;;;0.20;;
30309;SDS011;17115;50.836;12.078;2023-04-24T11:46:07;0.25;;;0.20;;
30309;SDS011;17115;50.836;12.078;2023-04-24T11:49:07;0.20;;;0.20;;
30309;SDS011;17115;50.836;12.078;2023-04-24T11:51:55;0.63;;;0.50;;
30309;SDS011;17115;50.836;12.078;2023-04-24T11:54:46;0.22;;;0.20;;
30309;SDS011;17115;50.836;12.078;2023-04-24T11:57:30;0.30;;;0.30;;
30309;SDS011;17115;50.836;12.078;2023-04-24T12:59:20;0.43;;;0.32;;
30309;SDS011;17115;50.836;12.078;2023-04-24T13:02:05;0.35;;;0.20;;
30309;SDS011;17115;50.836;12.078;2023-04-24T13:04:54;0.45;;;0.28;;
30309;SDS011;17115;50.836;12.078;2023-04-24T13:07:39;0.52;;;0.30;;
30309;SDS011;17115;50.836;12.078;2023-04-24T13:10:25;0.50;;;0.40;;
30309;SDS011;17115;50.836;12.078;2023-04-24T13:13:10;0.70;;;0.17;;
30309;SDS011;17115;50.836;12.078;2023-04-24T13:15:55;0.20;;;0.20;;
30309;SDS011;17115;50.836;12.078;2023-04-24T13:18:40;0.40;;;0.30;;
30309;SDS011;17115;50.836;12.078;2023-04-24T13:21:24;0.25;;;0.20;;
30309;SDS011;17115;50.836;12.078;2023-04-24T13:24:12;0.20;;;0.20;;
30309;SDS011;17115;50.836;12.078;2023-04-24T13:26:58;0.20;;;0.15;;
30309;SDS011;17115;50.836;12.078;2023-04-24T13:29:44;0.32;;;0.17;;
30309;SDS011;17115;50.836;12.078;2023-04-24T13:32:30;0.08;;;0.05;;
30309;SDS011;17115;50.836;12.078;2023-04-24T13:35:15;0.47;;;0.10;;
30309;SDS011;17115;50.836;12.078;2023-04-24T13:38:00;0.20;;;0.20;;
30309;SDS011;17115;50.836;12.078;2023-04-24T13:40:49;0.75;;;0.30;;
30309;SDS011;17115;50.836;12.078;2023-04-24T13:43:40;2.80;;;0.40;;
30309;SDS011;17115;50.836;12.078;2023-04-24T13:46:26;0.00;;;0.00;;
30309;SDS011;17115;50.836;12.078;2023-04-24T13:49:14;0.20;;;0.20;;
30309;SDS011;17115;50.836;12.078;2023-04-24T13:52:00;0.10;;;0.10;;
30309;SDS011;17115;50.836;12.078;2023-04-24T13:54:48;0.50;;;0.40;;
30309;SDS011;17115;50.836;12.078;2023-04-24T13:57:48;3.45;;;0.25;;
30309;SDS011;17115;50.836;12.078;2023-04-24T15:02:02;0.00;;;0.00;;
30309;SDS011;17115;50.836;12.078;2023-04-24T15:04:46;0.10;;;0.10;;
30309;SDS011;17115;50.836;12.078;2023-04-24T15:07:31;0.70;;;0.70;;
30309;SDS011;17115;50.836;12.078;2023-04-24T15:10:16;0.25;;;0.17;;
30309;SDS011;17115;50.836;12.078;2023-04-24T15:13:02;0.30;;;0.30;;
30309;SDS011;17115;50.836;12.078;2023-04-24T15:15:46;1.13;;;0.30;;
30309;SDS011;17115;50.836;12.078;2023-04-24T15:18:35;0.00;;;0.00;;
30309;SDS011;17115;50.836;12.078;2023-04-24T15:21:20;0.50;;;0.40;;
30309;SDS011;17115;50.836;12.078;2023-04-24T15:24:04;0.43;;;0.43;;
30309;SDS011;17115;50.836;12.078;2023-04-24T15:26:49;0.10;;;0.10;;
30309;SDS011;17115;50.836;12.078;2023-04-24T15:29:33;0.20;;;0.20;;
30309;SDS011;17115;50.836;12.078;2023-04-24T15:32:19;0.35;;;0.35;;
30309;SDS011;17115;50.836;12.078;2023-04-24T15:35:05;0.10;;;0.10;;
30309;SDS011;17115;50.836;12.078;2023-04-24T15:37:50;0.70;;;0.47;;
30309;SDS011;17115;50.836;12.078;2023-04-24T15:40:35;0.10;;;0.10;;
30309;SDS011;17115;50.836;12.078;2023-04-24T15:43:19;0.00;;;0.00;;
30309;SDS011;17115;50.836;12.078;2023-04-24T15:46:04;0.10;;;0.10;;
30309;SDS011;17115;50.836;12.078;2023-04-24T15:48:49;0.00;;;0.00;;
30309;SDS011;17115;50.836;12.078;2023-04-24T15:51:34;0.00;;;0.00;;
30309;SDS011;17115;50.836;12.078;2023-04-24T15:54:18;0.00;;;0.00;;
30309;SDS011;17115;50.836;12.078;2023-04-24T15:57:06;0.10;;;0.10;;
30309;SDS011;17115;50.836;12.078;2023-04-24T15:59:51;0.00;;;0.00;;
30309;SDS011;17115;50.836;12.078;2023-04-24T16:02:43;0.00;;;0.00;;
30309;SDS011;17115;50.836;12.078;2023-04-24T16:05:30;0.20;;;0.20;;
30309;SDS011;17115;50.836;12.078;2023-04-24T16:08:31;0.00;;;0.00;;
30309;SDS011;17115;50.836;12.078;2023-04-24T16:11:15;0.00;;;0.00;;
30309;SDS011;17115;50.836;12.078;2023-04-24T16:14:01;0.00;;;0.00;;
30309;SDS011;17115;50.836;12.078;2023-04-24T16:16:45;0.00;;;0.00;;
30309;SDS011;17115;50.836;12.078;2023-04-24T16:19:30;0.10;;;0.00;;
30309;SDS011;17115;50.836;12.078;2023-04-24T16:22:15;0.08;;;0.08;;
30309;SDS011;17115;50.836;12.078;2023-04-24T16:24:59;0.00;;;0.00;;
30309;SDS011;17115;50.836;12.078;2023-04-24T16:27:44;0.00;;;0.00;;
30309;SDS011;17115;50.836;12.078;2023-04-24T16:30:32;0.00;;;0.00;;
30309;SDS011;17115;50.836;12.078;2023-04-24T16:33:17;0.00;;;0.00;;
30309;SDS011;17115;50.836;12.078;2023-04-24T16:36:03;0.00;;;0.00;;
30309;SDS011;17115;50.836;12.078;2023-04-24T16:38:48;0.05;;;0.00;;
30309;SDS011;17115;50.836;12.078;2023-04-24T16:41:33;0.15;;;0.15;;
30309;SDS011;17115;50.836;12.078;2023-04-24T16:44:18;0.40;;;0.13;;
30309;SDS011;17115;50.836;12.078;2023-04-24T16:47:03;0.50;;;0.10;;
30309;SDS011;17115;50.836;12.078;2023-04-24T16:49:48;0.20;;;0.20;;
30309;SDS011;17115;50.836;12.078;2023-04-24T16:52:33;0.20;;;0.10;;
30309;SDS011;17115;50.836;12.078;2023-04-24T16:55:18;0.00;;;0.00;;
30309;SDS011;17115;50.836;12.078;2023-04-24T16:58:02;0.15;;;0.15;;
30309;SDS011;17115;50.836;12.078;2023-04-24T17:00:47;0.15;;;0.15;;
30309;SDS011;17115;50.836;12.078;2023-04-24T20:21:05;0.00;;;0.00;;
30309;SDS011;17115;50.836;12.078;2023-04-24T20:23:50;0.00;;;0.00;;
30309;SDS011;17115;50.836;12.078;2023-04-24T20:26:37;0.45;;;0.20;;
30309;SDS011;17115;50.836;12.078;2023-04-24T20:29:22;0.00;;;0.00;;
30309;SDS011;17115;50.836;12.078;2023-04-24T20:32:09;0.00;;;0.00;;
30309;SDS011;17115;50.836;12.078;2023-04-24T20:34:55;0.00;;;0.00;;
30309;SDS011;17115;50.836;12.078;2023-04-24T20:37:44;0.00;;;0.00;;
30309;SDS011;17115;50.836;12.078;2023-04-24T20:40:31;3.83;;;0.75;;
30309;SDS011;17115;50.836;12.078;2023-04-24T20:43:15;0.08;;;0.08;;
30309;SDS011;17115;50.836;12.078;2023-04-24T20:46:01;0.00;;;0.00;;
30309;SDS011;17115;50.836;12.078;2023-04-24T20:48:48;0.05;;;0.05;;
30309;SDS011;17115;50.836;12.078;2023-04-24T20:51:32;0.00;;;0.00;;
30309;SDS011;17115;50.836;12.078;2023-04-24T20:54:25;1.75;;;0.28;;
30309;SDS011;17115;50.836;12.078;2023-04-24T20:57:11;0.45;;;0.45;;
30309;SDS011;17115;50.836;12.078;2023-04-24T20:59:56;0.00;;;0.00;;
30309;SDS011;17115;50.836;12.078;2023-04-24T21:02:40;0.00;;;0.00;;
30309;SDS011;17115;50.836;12.078;2023-04-24T21:05:25;0.03;;;0.03;;
30309;SDS011;17115;50.836;12.078;2023-04-24T21:08:16;0.00;;;0.00;;
30309;SDS011;17115;50.836;12.078;2023-04-24T21:11:01;0.00;;;0.00;;
30309;SDS011;17115;50.836;12.078;2023-04-24T21:13:45;0.68;;;0.22;;
30309;SDS011;17115;50.836;12.078;2023-04-24T21:16:31;0.00;;;0.00;;
30309;SDS011;17115;50.836;12.078;2023-04-24T21:19:16;0.00;;;0.00;;
30309;SDS011;17115;50.836;12.078;2023-04-24T21:22:03;0.00;;;0.00;;
30309;SDS011;17115;50.836;12.078;2023-04-24T21:24:47;1.02;;;0.35;;
30309;SDS011;17115;50.836;12.078;2023-04-24T21:27:32;0.10;;;0.10;;
30309;SDS011;17115;50.836;12.078;2023-04-24T21:30:16;0.13;;;0.13;;
30309;SDS011;17115;50.836;12.078;2023-04-24T21:33:01;0.57;;;0.57;;
30309;SDS011;17115;50.836;12.078;2023-04-24T21:35:47;1.75;;;0.52;;
30309;SDS011;17115;50.836;12.078;2023-04-24T21:38:31;0.57;;;0.30;;
30309;SDS011;17115;50.836;12.078;2023-04-24T21:41:23;0.82;;;0.52;;
30309;SDS011;17115;50.836;12.078;2023-04-24T21:44:07;2.25;;;0.45;;
30309;SDS011;17115;50.836;12.078;2023-04-24T21:46:52;0.60;;;0.60;;
30309;SDS011;17115;50.836;12.078;2023-04-24T21:49:37;1.58;;;0.77;;
30309;SDS011;17115;50.836;12.078;2023-04-24T21:52:22;0.65;;;0.55;;
30309;SDS011;17115;50.836;12.078;2023-04-24T21:55:08;0.32;;;0.32;;
30309;SDS011;17115;50.836;12.078;2023-04-24T21:57:53;0.63;;;0.55;;
30309;SDS011;17115;50.836;12.078;2023-04-24T22:01:00;0.00;;;0.00;;
30309;SDS011;17115;50.836;12.078;2023-04-24T22:03:45;0.10;;;0.10;;
30309;SDS011;17115;50.836;12.078;2023-04-24T22:06:30;0.38;;;0.38;;
30309;SDS011;17115;50.836;12.078;2023-04-24T22:09:15;0.03;;;0.03;;
30309;SDS011;17115;50.836;12.078;2023-04-24T22:12:00;0.00;;;0.00;;
30309;SDS011;17115;50.836;12.078;2023-04-24T22:14:45;0.00;;;0.00;;
30309;SDS011;17115;50.836;12.078;2023-04-24T22:17:29;0.00;;;0.00;;
